Geoffrey Lallemand.

Geoffrey Lallemand.

Geoffrey Lallemand

Voir toute les actualités.

Avion / Hélicoptère / Simulateur*
Avion
METAR :

LFQA 171330Z AUTO VRB03KT CAVOK 25/12 Q1021


vue en direct sur l'aérodrome
facturation mentions légales politique de confidentialité
Cochet Concept
cx